Terminal Aerodrome Forecast
Issued by NWS Sioux Falls, SD

Home | Current Version | Previous Version | Graphics & Text | Print | Product List | Glossary Off
Versions: 1 2 3 4 5 6 7 8 9 10 11 12 13

000
FTUS43 KFSD 230520
TAFSUX
TAF
KSUX 230520Z 2306/2406 14006KT P6SM FEW250
     FM231000 23005KT P6SM SCT200 WS014/33040KT
     FM231100 31009KT P6SM SCT110 BKN200 WS010/32045KT
     FM231400 31017G26KT P6SM FEW250
     FM231700 31026G39KT P6SM FEW200
     FM240000 33018G26KT P6SM SCT070=

USA.gov is the U.S. government's official web portal to all federal, state and local government web resources and services.